sensor_id;sensor_type;location;lat;lon;timestamp;P1;durP1;ratioP1;P2;durP2;ratioP2
54171;SDS011;40076;52.354;4.970;2022-09-29T00:01:10;8.43;;;5.13;;
54171;SDS011;40076;52.354;4.970;2022-09-29T00:03:37;6.90;;;4.70;;
54171;SDS011;40076;52.354;4.970;2022-09-29T00:06:02;6.13;;;4.28;;
54171;SDS011;40076;52.354;4.970;2022-09-29T00:08:28;5.95;;;4.65;;
54171;SDS011;40076;52.354;4.970;2022-09-29T00:10:54;5.97;;;4.78;;
54171;SDS011;40076;52.354;4.970;2022-09-29T00:13:20;6.70;;;4.60;;
54171;SDS011;40076;52.354;4.970;2022-09-29T00:15:55;6.03;;;4.75;;
54171;SDS011;40076;52.354;4.970;2022-09-29T00:18:23;8.38;;;4.97;;
54171;SDS011;40076;52.354;4.970;2022-09-29T00:21:21;7.85;;;5.28;;
54171;SDS011;40076;52.354;4.970;2022-09-29T00:23:43;7.80;;;5.00;;
54171;SDS011;40076;52.354;4.970;2022-09-29T00:28:40;7.78;;;4.75;;
54171;SDS011;40076;52.354;4.970;2022-09-29T00:31:09;6.15;;;5.45;;
54171;SDS011;40076;52.354;4.970;2022-09-29T00:33:35;7.55;;;6.00;;
54171;SDS011;40076;52.354;4.970;2022-09-29T00:36:03;5.90;;;5.10;;
54171;SDS011;40076;52.354;4.970;2022-09-29T00:38:33;7.53;;;5.47;;
54171;SDS011;40076;52.354;4.970;2022-09-29T00:40:59;6.80;;;5.15;;
54171;SDS011;40076;52.354;4.970;2022-09-29T00:46:23;7.00;;;5.43;;
54171;SDS011;40076;52.354;4.970;2022-09-29T00:48:50;5.85;;;4.68;;
54171;SDS011;40076;52.354;4.970;2022-09-29T00:51:18;7.85;;;5.03;;
54171;SDS011;40076;52.354;4.970;2022-09-29T00:53:44;8.57;;;5.43;;
54171;SDS011;40076;52.354;4.970;2022-09-29T00:56:11;6.38;;;5.43;;
54171;SDS011;40076;52.354;4.970;2022-09-29T00:58:40;8.30;;;5.72;;
54171;SDS011;40076;52.354;4.970;2022-09-29T01:01:08;6.38;;;5.53;;
54171;SDS011;40076;52.354;4.970;2022-09-29T01:03:37;7.57;;;5.30;;
54171;SDS011;40076;52.354;4.970;2022-09-29T01:06:10;9.20;;;5.78;;
54171;SDS011;40076;52.354;4.970;2022-09-29T01:11:09;7.78;;;5.20;;
54171;SDS011;40076;52.354;4.970;2022-09-29T01:13:36;10.25;;;5.50;;
54171;SDS011;40076;52.354;4.970;2022-09-29T01:16:02;9.18;;;5.28;;
54171;SDS011;40076;52.354;4.970;2022-09-29T01:18:27;6.43;;;5.05;;
54171;SDS011;40076;52.354;4.970;2022-09-29T01:26:29;5.75;;;4.72;;
54171;SDS011;40076;52.354;4.970;2022-09-29T01:31:53;6.60;;;5.10;;
54171;SDS011;40076;52.354;4.970;2022-09-29T01:37:10;9.13;;;5.57;;
54171;SDS011;40076;52.354;4.970;2022-09-29T01:40:00;7.10;;;5.95;;
54171;SDS011;40076;52.354;4.970;2022-09-29T01:42:35;7.65;;;5.03;;
54171;SDS011;40076;52.354;4.970;2022-09-29T01:45:15;6.88;;;5.35;;
54171;SDS011;40076;52.354;4.970;2022-09-29T01:47:48;6.38;;;5.13;;
54171;SDS011;40076;52.354;4.970;2022-09-29T01:50:22;5.78;;;4.95;;
54171;SDS011;40076;52.354;4.970;2022-09-29T01:52:57;7.45;;;5.18;;
54171;SDS011;40076;52.354;4.970;2022-09-29T01:55:27;6.70;;;5.30;;
54171;SDS011;40076;52.354;4.970;2022-09-29T01:57:58;7.03;;;5.38;;
54171;SDS011;40076;52.354;4.970;2022-09-29T02:00:26;7.53;;;5.80;;
54171;SDS011;40076;52.354;4.970;2022-09-29T02:05:45;7.53;;;5.68;;
54171;SDS011;40076;52.354;4.970;2022-09-29T02:10:48;7.22;;;5.90;;
54171;SDS011;40076;52.354;4.970;2022-09-29T02:13:18;7.63;;;6.32;;
54171;SDS011;40076;52.354;4.970;2022-09-29T02:15:45;7.78;;;6.07;;
54171;SDS011;40076;52.354;4.970;2022-09-29T02:18:17;9.80;;;6.43;;
54171;SDS011;40076;52.354;4.970;2022-09-29T02:20:46;7.80;;;6.40;;
54171;SDS011;40076;52.354;4.970;2022-09-29T02:23:12;9.38;;;6.95;;
54171;SDS011;40076;52.354;4.970;2022-09-29T02:25:38;7.78;;;6.30;;
54171;SDS011;40076;52.354;4.970;2022-09-29T02:28:05;8.77;;;6.45;;
54171;SDS011;40076;52.354;4.970;2022-09-29T02:30:31;7.03;;;5.97;;
54171;SDS011;40076;52.354;4.970;2022-09-29T02:32:57;6.93;;;6.18;;
54171;SDS011;40076;52.354;4.970;2022-09-29T02:35:22;7.18;;;5.80;;
54171;SDS011;40076;52.354;4.970;2022-09-29T02:38:04;13.88;;;6.45;;
54171;SDS011;40076;52.354;4.970;2022-09-29T02:46:01;11.00;;;7.15;;
54171;SDS011;40076;52.354;4.970;2022-09-29T02:48:49;9.55;;;6.90;;
54171;SDS011;40076;52.354;4.970;2022-09-29T02:51:35;8.85;;;6.82;;
54171;SDS011;40076;52.354;4.970;2022-09-29T03:00:12;9.00;;;7.07;;
54171;SDS011;40076;52.354;4.970;2022-09-29T03:02:40;9.60;;;7.65;;
54171;SDS011;40076;52.354;4.970;2022-09-29T03:05:08;11.07;;;7.13;;
54171;SDS011;40076;52.354;4.970;2022-09-29T03:07:36;8.85;;;7.65;;
54171;SDS011;40076;52.354;4.970;2022-09-29T03:10:03;11.52;;;8.90;;
54171;SDS011;40076;52.354;4.970;2022-09-29T03:12:29;11.18;;;8.15;;
54171;SDS011;40076;52.354;4.970;2022-09-29T03:14:55;9.65;;;8.30;;
54171;SDS011;40076;52.354;4.970;2022-09-29T03:17:20;10.88;;;8.25;;
54171;SDS011;40076;52.354;4.970;2022-09-29T03:19:47;8.85;;;7.95;;
54171;SDS011;40076;52.354;4.970;2022-09-29T03:22:12;11.45;;;9.25;;
54171;SDS011;40076;52.354;4.970;2022-09-29T03:24:38;9.65;;;7.55;;
54171;SDS011;40076;52.354;4.970;2022-09-29T03:27:03;9.52;;;8.60;;
54171;SDS011;40076;52.354;4.970;2022-09-29T03:29:29;11.23;;;8.30;;
54171;SDS011;40076;52.354;4.970;2022-09-29T03:31:54;10.65;;;8.98;;
54171;SDS011;40076;52.354;4.970;2022-09-29T03:34:19;10.75;;;8.93;;
54171;SDS011;40076;52.354;4.970;2022-09-29T03:36:45;11.07;;;9.27;;
54171;SDS011;40076;52.354;4.970;2022-09-29T03:39:10;10.85;;;9.20;;
54171;SDS011;40076;52.354;4.970;2022-09-29T03:41:36;9.82;;;8.73;;
54171;SDS011;40076;52.354;4.970;2022-09-29T03:44:01;11.32;;;9.35;;
54171;SDS011;40076;52.354;4.970;2022-09-29T03:46:26;10.05;;;9.00;;
54171;SDS011;40076;52.354;4.970;2022-09-29T03:48:52;11.35;;;9.95;;
54171;SDS011;40076;52.354;4.970;2022-09-29T03:51:18;9.95;;;8.55;;
54171;SDS011;40076;52.354;4.970;2022-09-29T03:53:43;12.02;;;9.40;;
54171;SDS011;40076;52.354;4.970;2022-09-29T03:56:09;15.60;;;10.77;;
54171;SDS011;40076;52.354;4.970;2022-09-29T03:58:34;12.60;;;10.02;;
54171;SDS011;40076;52.354;4.970;2022-09-29T04:00:59;12.18;;;10.57;;
54171;SDS011;40076;52.354;4.970;2022-09-29T04:03:25;15.07;;;9.77;;
54171;SDS011;40076;52.354;4.970;2022-09-29T04:05:51;11.82;;;9.40;;
54171;SDS011;40076;52.354;4.970;2022-09-29T04:08:16;11.57;;;10.02;;
54171;SDS011;40076;52.354;4.970;2022-09-29T04:10:42;12.82;;;10.13;;
54171;SDS011;40076;52.354;4.970;2022-09-29T04:13:09;11.48;;;10.27;;
54171;SDS011;40076;52.354;4.970;2022-09-29T04:15:35;11.95;;;10.75;;
54171;SDS011;40076;52.354;4.970;2022-09-29T04:18:00;13.30;;;9.80;;
54171;SDS011;40076;52.354;4.970;2022-09-29T04:20:25;16.48;;;10.52;;
54171;SDS011;40076;52.354;4.970;2022-09-29T04:22:51;13.05;;;10.82;;
54171;SDS011;40076;52.354;4.970;2022-09-29T04:25:16;11.18;;;9.35;;
54171;SDS011;40076;52.354;4.970;2022-09-29T04:27:42;11.80;;;10.10;;
54171;SDS011;40076;52.354;4.970;2022-09-29T04:30:08;11.73;;;9.93;;
54171;SDS011;40076;52.354;4.970;2022-09-29T04:32:34;10.65;;;9.23;;
54171;SDS011;40076;52.354;4.970;2022-09-29T04:34:59;12.07;;;9.98;;
54171;SDS011;40076;52.354;4.970;2022-09-29T04:37:25;12.77;;;9.63;;
54171;SDS011;40076;52.354;4.970;2022-09-29T04:39:50;11.70;;;10.32;;
54171;SDS011;40076;52.354;4.970;2022-09-29T04:42:17;11.80;;;10.27;;
54171;SDS011;40076;52.354;4.970;2022-09-29T04:44:42;12.32;;;10.20;;
54171;SDS011;40076;52.354;4.970;2022-09-29T04:47:08;14.32;;;9.80;;
54171;SDS011;40076;52.354;4.970;2022-09-29T04:49:33;12.40;;;10.63;;
54171;SDS011;40076;52.354;4.970;2022-09-29T04:51:58;11.00;;;9.90;;
54171;SDS011;40076;52.354;4.970;2022-09-29T04:54:24;14.38;;;10.15;;
54171;SDS011;40076;52.354;4.970;2022-09-29T04:56:49;78.70;;;10.40;;
54171;SDS011;40076;52.354;4.970;2022-09-29T04:59:15;9.70;;;8.70;;
54171;SDS011;40076;52.354;4.970;2022-09-29T05:01:42;9.32;;;8.32;;
54171;SDS011;40076;52.354;4.970;2022-09-29T05:04:07;9.60;;;8.32;;
54171;SDS011;40076;52.354;4.970;2022-09-29T05:06:33;14.40;;;8.77;;
54171;SDS011;40076;52.354;4.970;2022-09-29T05:09:03;12.98;;;8.65;;
54171;SDS011;40076;52.354;4.970;2022-09-29T05:11:29;10.77;;;8.95;;
54171;SDS011;40076;52.354;4.970;2022-09-29T05:13:54;9.73;;;8.73;;
54171;SDS011;40076;52.354;4.970;2022-09-29T05:16:19;10.13;;;8.93;;
54171;SDS011;40076;52.354;4.970;2022-09-29T05:18:45;9.95;;;8.38;;
54171;SDS011;40076;52.354;4.970;2022-09-29T05:21:10;10.55;;;8.45;;
54171;SDS011;40076;52.354;4.970;2022-09-29T05:23:35;17.88;;;9.70;;
54171;SDS011;40076;52.354;4.970;2022-09-29T05:26:02;11.13;;;8.63;;
54171;SDS011;40076;52.354;4.970;2022-09-29T05:28:29;14.80;;;8.63;;
54171;SDS011;40076;52.354;4.970;2022-09-29T05:30:54;10.65;;;8.93;;
54171;SDS011;40076;52.354;4.970;2022-09-29T05:33:19;16.23;;;9.70;;
54171;SDS011;40076;52.354;4.970;2022-09-29T05:35:44;12.48;;;10.10;;
54171;SDS011;40076;52.354;4.970;2022-09-29T05:38:10;11.63;;;8.82;;
54171;SDS011;40076;52.354;4.970;2022-09-29T05:40:35;9.23;;;7.97;;
54171;SDS011;40076;52.354;4.970;2022-09-29T05:43:01;10.95;;;8.93;;
54171;SDS011;40076;52.354;4.970;2022-09-29T05:45:27;10.88;;;8.75;;
54171;SDS011;40076;52.354;4.970;2022-09-29T05:47:53;11.18;;;9.68;;
54171;SDS011;40076;52.354;4.970;2022-09-29T05:50:18;17.20;;;9.50;;
54171;SDS011;40076;52.354;4.970;2022-09-29T05:52:44;12.63;;;9.63;;
54171;SDS011;40076;52.354;4.970;2022-09-29T05:55:13;12.73;;;9.25;;
54171;SDS011;40076;52.354;4.970;2022-09-29T05:57:38;12.07;;;9.20;;
54171;SDS011;40076;52.354;4.970;2022-09-29T06:00:04;12.60;;;9.60;;
54171;SDS011;40076;52.354;4.970;2022-09-29T06:02:30;12.27;;;9.88;;
54171;SDS011;40076;52.354;4.970;2022-09-29T06:04:56;12.05;;;9.65;;
54171;SDS011;40076;52.354;4.970;2022-09-29T06:07:21;11.32;;;9.30;;
54171;SDS011;40076;52.354;4.970;2022-09-29T06:09:47;12.18;;;10.32;;
54171;SDS011;40076;52.354;4.970;2022-09-29T06:12:12;15.45;;;10.52;;
54171;SDS011;40076;52.354;4.970;2022-09-29T06:14:37;14.80;;;10.77;;
54171;SDS011;40076;52.354;4.970;2022-09-29T06:17:03;13.65;;;10.85;;
54171;SDS011;40076;52.354;4.970;2022-09-29T06:19:28;13.73;;;10.23;;
54171;SDS011;40076;52.354;4.970;2022-09-29T06:21:53;16.63;;;11.57;;
54171;SDS011;40076;52.354;4.970;2022-09-29T06:24:18;14.52;;;10.32;;
54171;SDS011;40076;52.354;4.970;2022-09-29T06:26:44;15.35;;;10.90;;
54171;SDS011;40076;52.354;4.970;2022-09-29T06:29:09;14.98;;;11.00;;
54171;SDS011;40076;52.354;4.970;2022-09-29T06:31:34;18.10;;;10.65;;
54171;SDS011;40076;52.354;4.970;2022-09-29T06:34:00;15.80;;;10.70;;
54171;SDS011;40076;52.354;4.970;2022-09-29T06:36:33;20.50;;;12.35;;
54171;SDS011;40076;52.354;4.970;2022-09-29T06:39:19;18.00;;;11.43;;
54171;SDS011;40076;52.354;4.970;2022-09-29T06:41:45;21.10;;;12.55;;
54171;SDS011;40076;52.354;4.970;2022-09-29T06:44:17;17.58;;;11.85;;
54171;SDS011;40076;52.354;4.970;2022-09-29T06:46:42;16.73;;;11.98;;
54171;SDS011;40076;52.354;4.970;2022-09-29T06:49:07;17.02;;;11.98;;
54171;SDS011;40076;52.354;4.970;2022-09-29T06:51:33;18.05;;;12.75;;
54171;SDS011;40076;52.354;4.970;2022-09-29T06:53:59;17.75;;;13.13;;
54171;SDS011;40076;52.354;4.970;2022-09-29T06:56:25;18.13;;;13.30;;
54171;SDS011;40076;52.354;4.970;2022-09-29T06:58:50;16.42;;;13.70;;
54171;SDS011;40076;52.354;4.970;2022-09-29T07:01:15;15.50;;;12.40;;
54171;SDS011;40076;52.354;4.970;2022-09-29T07:03:40;17.85;;;13.38;;
54171;SDS011;40076;52.354;4.970;2022-09-29T07:06:06;17.42;;;12.90;;
54171;SDS011;40076;52.354;4.970;2022-09-29T07:08:34;17.48;;;13.63;;
54171;SDS011;40076;52.354;4.970;2022-09-29T07:11:02;16.65;;;13.45;;
54171;SDS011;40076;52.354;4.970;2022-09-29T07:13:28;21.10;;;14.52;;
54171;SDS011;40076;52.354;4.970;2022-09-29T07:15:53;20.60;;;16.30;;
54171;SDS011;40076;52.354;4.970;2022-09-29T07:18:19;21.45;;;16.52;;
54171;SDS011;40076;52.354;4.970;2022-09-29T07:20:45;19.90;;;15.05;;
54171;SDS011;40076;52.354;4.970;2022-09-29T07:23:10;23.60;;;16.90;;
54171;SDS011;40076;52.354;4.970;2022-09-29T07:25:35;24.98;;;17.88;;
54171;SDS011;40076;52.354;4.970;2022-09-29T07:28:01;25.08;;;19.23;;
54171;SDS011;40076;52.354;4.970;2022-09-29T07:30:27;27.60;;;21.17;;
54171;SDS011;40076;52.354;4.970;2022-09-29T07:32:52;25.98;;;21.30;;
54171;SDS011;40076;52.354;4.970;2022-09-29T07:35:19;32.28;;;23.83;;
54171;SDS011;40076;52.354;4.970;2022-09-29T07:37:52;25.95;;;20.67;;
54171;SDS011;40076;52.354;4.970;2022-09-29T07:40:21;33.25;;;23.30;;
54171;SDS011;40076;52.354;4.970;2022-09-29T07:42:48;32.95;;;23.50;;
54171;SDS011;40076;52.354;4.970;2022-09-29T07:45:14;33.33;;;24.08;;
54171;SDS011;40076;52.354;4.970;2022-09-29T07:47:40;33.40;;;25.38;;
54171;SDS011;40076;52.354;4.970;2022-09-29T07:50:06;34.05;;;24.17;;
54171;SDS011;40076;52.354;4.970;2022-09-29T07:52:31;32.67;;;23.90;;
54171;SDS011;40076;52.354;4.970;2022-09-29T07:54:56;38.72;;;25.00;;
54171;SDS011;40076;52.354;4.970;2022-09-29T07:57:22;32.60;;;24.27;;
54171;SDS011;40076;52.354;4.970;2022-09-29T07:59:47;32.17;;;25.33;;
54171;SDS011;40076;52.354;4.970;2022-09-29T08:02:12;29.63;;;22.98;;
54171;SDS011;40076;52.354;4.970;2022-09-29T08:04:38;37.42;;;26.05;;
54171;SDS011;40076;52.354;4.970;2022-09-29T08:07:04;33.55;;;24.90;;
54171;SDS011;40076;52.354;4.970;2022-09-29T08:09:30;32.95;;;25.50;;
54171;SDS011;40076;52.354;4.970;2022-09-29T08:11:56;35.08;;;26.38;;
54171;SDS011;40076;52.354;4.970;2022-09-29T08:14:22;35.72;;;27.85;;
54171;SDS011;40076;52.354;4.970;2022-09-29T08:16:47;44.67;;;30.75;;
54171;SDS011;40076;52.354;4.970;2022-09-29T08:19:12;41.63;;;31.20;;
54171;SDS011;40076;52.354;4.970;2022-09-29T08:21:38;45.53;;;32.00;;
54171;SDS011;40076;52.354;4.970;2022-09-29T08:24:04;41.40;;;30.63;;
54171;SDS011;40076;52.354;4.970;2022-09-29T08:26:31;43.72;;;31.65;;
54171;SDS011;40076;52.354;4.970;2022-09-29T08:28:59;42.33;;;31.67;;
54171;SDS011;40076;52.354;4.970;2022-09-29T08:31:25;41.05;;;30.33;;
54171;SDS011;40076;52.354;4.970;2022-09-29T08:33:50;40.20;;;30.75;;
54171;SDS011;40076;52.354;4.970;2022-09-29T08:36:16;46.63;;;32.88;;
54171;SDS011;40076;52.354;4.970;2022-09-29T08:38:44;41.47;;;30.67;;
54171;SDS011;40076;52.354;4.970;2022-09-29T08:43:53;46.30;;;33.05;;
54171;SDS011;40076;52.354;4.970;2022-09-29T08:46:47;39.25;;;30.38;;
54171;SDS011;40076;52.354;4.970;2022-09-29T08:49:18;45.15;;;33.10;;
54171;SDS011;40076;52.354;4.970;2022-09-29T08:51:55;45.05;;;33.42;;
54171;SDS011;40076;52.354;4.970;2022-09-29T08:54:32;48.50;;;33.67;;
54171;SDS011;40076;52.354;4.970;2022-09-29T08:56:59;42.97;;;30.60;;
54171;SDS011;40076;52.354;4.970;2022-09-29T08:59:26;43.63;;;30.67;;
54171;SDS011;40076;52.354;4.970;2022-09-29T09:04:34;37.85;;;27.70;;
54171;SDS011;40076;52.354;4.970;2022-09-29T09:07:19;34.58;;;27.67;;
54171;SDS011;40076;52.354;4.970;2022-09-29T09:09:58;37.67;;;28.13;;
54171;SDS011;40076;52.354;4.970;2022-09-29T09:15:14;32.67;;;24.60;;
54171;SDS011;40076;52.354;4.970;2022-09-29T09:18:08;34.58;;;23.70;;
54171;SDS011;40076;52.354;4.970;2022-09-29T09:23:33;29.98;;;21.77;;
54171;SDS011;40076;52.354;4.970;2022-09-29T09:26:02;22.70;;;18.17;;
54171;SDS011;40076;52.354;4.970;2022-09-29T09:28:30;21.92;;;17.05;;
54171;SDS011;40076;52.354;4.970;2022-09-29T09:33:31;20.93;;;15.13;;
54171;SDS011;40076;52.354;4.970;2022-09-29T09:38:46;13.00;;;10.40;;
54171;SDS011;40076;52.354;4.970;2022-09-29T09:41:18;14.50;;;11.80;;
54171;SDS011;40076;52.354;4.970;2022-09-29T09:43:47;17.52;;;13.10;;
54171;SDS011;40076;52.354;4.970;2022-09-29T09:46:20;13.50;;;11.65;;
54171;SDS011;40076;52.354;4.970;2022-09-29T09:54:32;15.98;;;12.15;;
54171;SDS011;40076;52.354;4.970;2022-09-29T09:57:12;15.02;;;10.55;;
54171;SDS011;40076;52.354;4.970;2022-09-29T10:05:17;13.90;;;11.60;;
54171;SDS011;40076;52.354;4.970;2022-09-29T10:07:45;12.80;;;10.75;;
54171;SDS011;40076;52.354;4.970;2022-09-29T10:10:14;17.83;;;12.30;;
54171;SDS011;40076;52.354;4.970;2022-09-29T10:12:42;14.30;;;11.63;;
54171;SDS011;40076;52.354;4.970;2022-09-29T10:15:14;12.10;;;9.32;;
54171;SDS011;40076;52.354;4.970;2022-09-29T10:17:45;9.02;;;7.50;;
54171;SDS011;40076;52.354;4.970;2022-09-29T10:20:18;9.25;;;6.72;;
54171;SDS011;40076;52.354;4.970;2022-09-29T10:23:06;13.18;;;7.10;;
54171;SDS011;40076;52.354;4.970;2022-09-29T10:25:51;9.05;;;8.02;;
54171;SDS011;40076;52.354;4.970;2022-09-29T10:28:21;10.18;;;8.00;;
54171;SDS011;40076;52.354;4.970;2022-09-29T10:30:48;10.98;;;8.45;;
54171;SDS011;40076;52.354;4.970;2022-09-29T10:33:16;10.05;;;8.60;;
54171;SDS011;40076;52.354;4.970;2022-09-29T10:35:43;11.98;;;9.25;;
54171;SDS011;40076;52.354;4.970;2022-09-29T10:38:17;10.63;;;7.90;;
54171;SDS011;40076;52.354;4.970;2022-09-29T10:40:58;8.52;;;6.38;;
54171;SDS011;40076;52.354;4.970;2022-09-29T10:43:34;9.57;;;7.40;;
54171;SDS011;40076;52.354;4.970;2022-09-29T10:46:02;8.95;;;6.82;;
54171;SDS011;40076;52.354;4.970;2022-09-29T10:48:27;11.95;;;8.75;;
54171;SDS011;40076;52.354;4.970;2022-09-29T10:53:38;9.73;;;8.07;;
54171;SDS011;40076;52.354;4.970;2022-09-29T10:56:13;10.02;;;7.22;;
54171;SDS011;40076;52.354;4.970;2022-09-29T10:58:57;8.10;;;5.72;;
54171;SDS011;40076;52.354;4.970;2022-09-29T11:01:24;11.43;;;7.38;;
54171;SDS011;40076;52.354;4.970;2022-09-29T11:03:52;9.25;;;6.60;;
54171;SDS011;40076;52.354;4.970;2022-09-29T11:06:34;9.95;;;7.10;;
54171;SDS011;40076;52.354;4.970;2022-09-29T11:09:06;9.55;;;7.70;;
54171;SDS011;40076;52.354;4.970;2022-09-29T11:11:54;7.85;;;6.43;;
54171;SDS011;40076;52.354;4.970;2022-09-29T11:14:29;8.63;;;6.50;;
54171;SDS011;40076;52.354;4.970;2022-09-29T11:17:01;7.18;;;5.57;;
54171;SDS011;40076;52.354;4.970;2022-09-29T11:19:44;6.75;;;5.32;;
54171;SDS011;40076;52.354;4.970;2022-09-29T11:25:06;7.35;;;5.35;;
54171;SDS011;40076;52.354;4.970;2022-09-29T11:30:18;7.03;;;4.57;;
54171;SDS011;40076;52.354;4.970;2022-09-29T11:32:56;8.20;;;4.00;;
54171;SDS011;40076;52.354;4.970;2022-09-29T11:35:53;7.20;;;4.07;;
54171;SDS011;40076;52.354;4.970;2022-09-29T11:43:50;5.10;;;4.07;;
54171;SDS011;40076;52.354;4.970;2022-09-29T11:51:47;5.30;;;3.50;;
54171;SDS011;40076;52.354;4.970;2022-09-29T12:00:02;6.43;;;3.38;;
54171;SDS011;40076;52.354;4.970;2022-09-29T12:05:49;4.25;;;2.92;;
54171;SDS011;40076;52.354;4.970;2022-09-29T12:08:32;6.13;;;2.90;;
54171;SDS011;40076;52.354;4.970;2022-09-29T12:11:15;5.88;;;3.55;;
54171;SDS011;40076;52.354;4.970;2022-09-29T12:13:54;6.03;;;3.08;;
54171;SDS011;40076;52.354;4.970;2022-09-29T12:16:41;4.57;;;2.95;;
54171;SDS011;40076;52.354;4.970;2022-09-29T12:19:15;4.20;;;2.80;;
54171;SDS011;40076;52.354;4.970;2022-09-29T12:21:47;4.70;;;2.83;;
54171;SDS011;40076;52.354;4.970;2022-09-29T12:24:31;4.95;;;2.95;;
54171;SDS011;40076;52.354;4.970;2022-09-29T12:27:02;4.80;;;2.60;;
54171;SDS011;40076;52.354;4.970;2022-09-29T12:29:39;4.95;;;2.50;;
54171;SDS011;40076;52.354;4.970;2022-09-29T12:32:13;5.60;;;2.67;;
54171;SDS011;40076;52.354;4.970;2022-09-29T12:34:46;6.47;;;2.45;;
54171;SDS011;40076;52.354;4.970;2022-09-29T12:37:17;4.60;;;1.98;;
54171;SDS011;40076;52.354;4.970;2022-09-29T12:42:38;13.45;;;3.00;;
54171;SDS011;40076;52.354;4.970;2022-09-29T12:48:18;3.38;;;1.30;;
54171;SDS011;40076;52.354;4.970;2022-09-29T12:50:53;4.03;;;2.08;;
54171;SDS011;40076;52.354;4.970;2022-09-29T12:53:33;3.17;;;1.60;;
54171;SDS011;40076;52.354;4.970;2022-09-29T12:56:10;3.55;;;1.67;;
54171;SDS011;40076;52.354;4.970;2022-09-29T12:58:48;3.55;;;1.40;;
54171;SDS011;40076;52.354;4.970;2022-09-29T13:01:19;3.67;;;1.70;;
54171;SDS011;40076;52.354;4.970;2022-09-29T13:09:24;4.95;;;1.90;;
54171;SDS011;40076;52.354;4.970;2022-09-29T13:12:28;2.83;;;1.60;;
54171;SDS011;40076;52.354;4.970;2022-09-29T13:18:14;3.15;;;1.40;;
54171;SDS011;40076;52.354;4.970;2022-09-29T13:20:53;3.40;;;1.45;;
54171;SDS011;40076;52.354;4.970;2022-09-29T13:29:02;4.35;;;1.70;;
54171;SDS011;40076;52.354;4.970;2022-09-29T13:31:36;2.53;;;1.60;;
54171;SDS011;40076;52.354;4.970;2022-09-29T13:34:04;3.47;;;1.52;;
54171;SDS011;40076;52.354;4.970;2022-09-29T13:39:03;4.25;;;1.67;;
54171;SDS011;40076;52.354;4.970;2022-09-29T13:41:32;3.10;;;1.45;;
54171;SDS011;40076;52.354;4.970;2022-09-29T13:44:03;3.92;;;1.60;;
54171;SDS011;40076;52.354;4.970;2022-09-29T13:54:21;3.45;;;2.00;;
54171;SDS011;40076;52.354;4.970;2022-09-29T13:56:58;4.00;;;1.80;;
54171;SDS011;40076;52.354;4.970;2022-09-29T14:04:54;5.78;;;1.80;;
54171;SDS011;40076;52.354;4.970;2022-09-29T14:07:37;3.63;;;1.23;;
54171;SDS011;40076;52.354;4.970;2022-09-29T14:10:50;1.65;;;0.70;;
54171;SDS011;40076;52.354;4.970;2022-09-29T14:12:56;1.45;;;0.70;;
54171;SDS011;40076;52.354;4.970;2022-09-29T14:15:26;1.92;;;0.70;;
54171;SDS011;40076;52.354;4.970;2022-09-29T14:17:59;0.80;;;0.40;;
54171;SDS011;40076;52.354;4.970;2022-09-29T14:20:30;1.23;;;0.40;;
54171;SDS011;40076;52.354;4.970;2022-09-29T14:25:31;0.52;;;0.30;;
54171;SDS011;40076;52.354;4.970;2022-09-29T14:28:24;0.60;;;0.20;;
54171;SDS011;40076;52.354;4.970;2022-09-29T14:30:58;0.98;;;0.28;;
54171;SDS011;40076;52.354;4.970;2022-09-29T14:33:44;0.38;;;0.20;;
54171;SDS011;40076;52.354;4.970;2022-09-29T14:36:15;1.20;;;0.30;;
54171;SDS011;40076;52.354;4.970;2022-09-29T14:38:49;0.63;;;0.20;;
54171;SDS011;40076;52.354;4.970;2022-09-29T15:00:49;0.63;;;0.30;;
54171;SDS011;40076;52.354;4.970;2022-09-29T15:03:23;0.43;;;0.20;;
54171;SDS011;40076;52.354;4.970;2022-09-29T15:06:03;1.35;;;0.20;;
54171;SDS011;40076;52.354;4.970;2022-09-29T15:08:29;0.80;;;0.30;;
54171;SDS011;40076;52.354;4.970;2022-09-29T15:10:55;0.73;;;0.20;;
54171;SDS011;40076;52.354;4.970;2022-09-29T15:16:19;0.35;;;0.10;;
54171;SDS011;40076;52.354;4.970;2022-09-29T15:21:29;0.22;;;0.15;;
54171;SDS011;40076;52.354;4.970;2022-09-29T15:24:19;0.57;;;0.25;;
54171;SDS011;40076;52.354;4.970;2022-09-29T15:27:02;0.63;;;0.20;;
54171;SDS011;40076;52.354;4.970;2022-09-29T15:29:29;0.55;;;0.20;;
54171;SDS011;40076;52.354;4.970;2022-09-29T15:31:55;0.60;;;0.20;;
54171;SDS011;40076;52.354;4.970;2022-09-29T15:34:21;0.75;;;0.20;;
54171;SDS011;40076;52.354;4.970;2022-09-29T15:36:50;0.40;;;0.22;;
54171;SDS011;40076;52.354;4.970;2022-09-29T15:42:01;0.70;;;0.20;;
54171;SDS011;40076;52.354;4.970;2022-09-29T15:44:36;1.88;;;0.30;;
54171;SDS011;40076;52.354;4.970;2022-09-29T15:47:01;0.35;;;0.20;;
54171;SDS011;40076;52.354;4.970;2022-09-29T15:49:27;1.20;;;0.30;;
54171;SDS011;40076;52.354;4.970;2022-09-29T15:51:54;0.63;;;0.25;;
54171;SDS011;40076;52.354;4.970;2022-09-29T15:54:20;0.40;;;0.20;;
54171;SDS011;40076;52.354;4.970;2022-09-29T15:56:46;0.40;;;0.20;;
54171;SDS011;40076;52.354;4.970;2022-09-29T15:59:37;2.15;;;0.20;;
54171;SDS011;40076;52.354;4.970;2022-09-29T16:02:05;0.40;;;0.20;;
54171;SDS011;40076;52.354;4.970;2022-09-29T16:04:39;0.80;;;0.20;;
54171;SDS011;40076;52.354;4.970;2022-09-29T16:07:04;0.70;;;0.30;;
54171;SDS011;40076;52.354;4.970;2022-09-29T16:09:30;1.95;;;0.40;;
54171;SDS011;40076;52.354;4.970;2022-09-29T16:11:55;2.22;;;0.45;;
54171;SDS011;40076;52.354;4.970;2022-09-29T16:14:22;1.25;;;0.35;;
54171;SDS011;40076;52.354;4.970;2022-09-29T16:16:51;0.50;;;0.30;;
54171;SDS011;40076;52.354;4.970;2022-09-29T16:19:28;1.23;;;0.20;;
54171;SDS011;40076;52.354;4.970;2022-09-29T16:21:57;0.50;;;0.30;;
54171;SDS011;40076;52.354;4.970;2022-09-29T16:24:33;0.68;;;0.20;;
54171;SDS011;40076;52.354;4.970;2022-09-29T16:27:00;0.65;;;0.20;;
54171;SDS011;40076;52.354;4.970;2022-09-29T16:38:00;1.47;;;0.30;;
54171;SDS011;40076;52.354;4.970;2022-09-29T16:41:18;1.13;;;0.30;;
54171;SDS011;40076;52.354;4.970;2022-09-29T16:43:51;0.80;;;0.40;;
54171;SDS011;40076;52.354;4.970;2022-09-29T16:46:27;0.80;;;0.30;;
54171;SDS011;40076;52.354;4.970;2022-09-29T16:48:53;0.70;;;0.30;;
54171;SDS011;40076;52.354;4.970;2022-09-29T16:51:19;1.00;;;0.40;;
54171;SDS011;40076;52.354;4.970;2022-09-29T16:53:47;1.75;;;0.30;;
54171;SDS011;40076;52.354;4.970;2022-09-29T16:56:35;1.38;;;0.30;;
54171;SDS011;40076;52.354;4.970;2022-09-29T16:59:11;1.52;;;0.60;;
54171;SDS011;40076;52.354;4.970;2022-09-29T17:01:39;2.17;;;0.50;;
54171;SDS011;40076;52.354;4.970;2022-09-29T17:04:08;2.35;;;0.52;;
54171;SDS011;40076;52.354;4.970;2022-09-29T17:06:35;2.88;;;0.82;;
54171;SDS011;40076;52.354;4.970;2022-09-29T17:09:01;2.40;;;0.75;;
54171;SDS011;40076;52.354;4.970;2022-09-29T17:11:28;2.13;;;0.70;;
54171;SDS011;40076;52.354;4.970;2022-09-29T17:13:53;2.65;;;0.63;;
54171;SDS011;40076;52.354;4.970;2022-09-29T17:16:21;1.98;;;0.60;;
54171;SDS011;40076;52.354;4.970;2022-09-29T17:18:50;1.95;;;0.63;;
54171;SDS011;40076;52.354;4.970;2022-09-29T17:21:17;2.60;;;0.90;;
54171;SDS011;40076;52.354;4.970;2022-09-29T17:23:43;2.70;;;0.75;;
54171;SDS011;40076;52.354;4.970;2022-09-29T17:26:16;3.10;;;0.70;;
54171;SDS011;40076;52.354;4.970;2022-09-29T17:29:03;2.38;;;0.60;;
54171;SDS011;40076;52.354;4.970;2022-09-29T17:31:29;2.05;;;0.98;;
54171;SDS011;40076;52.354;4.970;2022-09-29T17:33:55;3.00;;;0.80;;
54171;SDS011;40076;52.354;4.970;2022-09-29T17:36:20;3.38;;;0.68;;
54171;SDS011;40076;52.354;4.970;2022-09-29T17:38:50;2.38;;;0.90;;
54171;SDS011;40076;52.354;4.970;2022-09-29T17:41:19;5.18;;;0.80;;